sensor_id;sensor_type;location;lat;lon;timestamp;temperature;humidity
45491;DHT22;31237;45.586;13.782;2023-09-08T00:01:55;21.00;67.80
45491;DHT22;31237;45.586;13.782;2023-09-08T00:04:21;21.00;67.90
45491;DHT22;31237;45.586;13.782;2023-09-08T00:06:48;21.00;68.10
45491;DHT22;31237;45.586;13.782;2023-09-08T00:09:14;20.90;68.10
45491;DHT22;31237;45.586;13.782;2023-09-08T00:11:39;20.90;68.30
45491;DHT22;31237;45.586;13.782;2023-09-08T00:14:05;20.90;68.30
45491;DHT22;31237;45.586;13.782;2023-09-08T00:16:31;20.80;68.30
45491;DHT22;31237;45.586;13.782;2023-09-08T00:18:57;20.90;68.50
45491;DHT22;31237;45.586;13.782;2023-09-08T00:21:26;20.80;68.50
45491;DHT22;31237;45.586;13.782;2023-09-08T00:23:52;20.80;68.50
45491;DHT22;31237;45.586;13.782;2023-09-08T00:26:18;20.80;68.50
45491;DHT22;31237;45.586;13.782;2023-09-08T00:28:44;20.80;68.50
45491;DHT22;31237;45.586;13.782;2023-09-08T00:31:10;20.70;68.60
45491;DHT22;31237;45.586;13.782;2023-09-08T00:33:36;20.70;68.80
45491;DHT22;31237;45.586;13.782;2023-09-08T00:36:03;20.70;68.90
45491;DHT22;31237;45.586;13.782;2023-09-08T00:38:28;20.60;69.00
45491;DHT22;31237;45.586;13.782;2023-09-08T00:40:54;20.60;69.10
45491;DHT22;31237;45.586;13.782;2023-09-08T00:43:20;20.60;69.20
45491;DHT22;31237;45.586;13.782;2023-09-08T00:45:46;20.60;69.20
45491;DHT22;31237;45.586;13.782;2023-09-08T00:48:13;20.60;69.30
45491;DHT22;31237;45.586;13.782;2023-09-08T00:50:38;20.60;69.40
45491;DHT22;31237;45.586;13.782;2023-09-08T00:53:05;20.60;69.50
45491;DHT22;31237;45.586;13.782;2023-09-08T00:55:32;20.60;69.60
45491;DHT22;31237;45.586;13.782;2023-09-08T00:57:59;20.60;69.70
45491;DHT22;31237;45.586;13.782;2023-09-08T01:00:25;20.50;69.60
45491;DHT22;31237;45.586;13.782;2023-09-08T01:02:51;20.60;69.60
45491;DHT22;31237;45.586;13.782;2023-09-08T01:05:17;20.60;69.40
45491;DHT22;31237;45.586;13.782;2023-09-08T01:07:44;20.60;69.50
45491;DHT22;31237;45.586;13.782;2023-09-08T01:10:10;20.60;69.60
45491;DHT22;31237;45.586;13.782;2023-09-08T01:12:37;20.60;69.70
45491;DHT22;31237;45.586;13.782;2023-09-08T01:15:03;20.60;69.70
45491;DHT22;31237;45.586;13.782;2023-09-08T01:17:30;20.50;69.70
45491;DHT22;31237;45.586;13.782;2023-09-08T01:19:56;20.50;69.90
45491;DHT22;31237;45.586;13.782;2023-09-08T01:25:28;20.50;70.10
45491;DHT22;31237;45.586;13.782;2023-09-08T01:27:57;20.40;70.20
45491;DHT22;31237;45.586;13.782;2023-09-08T01:30:26;20.50;70.30
45491;DHT22;31237;45.586;13.782;2023-09-08T01:32:54;20.40;70.30
45491;DHT22;31237;45.586;13.782;2023-09-08T01:35:21;20.40;70.30
45491;DHT22;31237;45.586;13.782;2023-09-08T01:37:48;20.40;70.50
45491;DHT22;31237;45.586;13.782;2023-09-08T01:40:14;20.40;70.60
45491;DHT22;31237;45.586;13.782;2023-09-08T01:42:40;20.40;70.60
45491;DHT22;31237;45.586;13.782;2023-09-08T01:45:07;20.40;70.60
45491;DHT22;31237;45.586;13.782;2023-09-08T01:47:33;20.40;70.70
45491;DHT22;31237;45.586;13.782;2023-09-08T01:50:00;20.30;70.80
45491;DHT22;31237;45.586;13.782;2023-09-08T01:52:26;20.30;70.90
45491;DHT22;31237;45.586;13.782;2023-09-08T01:54:52;20.30;71.00
45491;DHT22;31237;45.586;13.782;2023-09-08T01:57:18;20.30;71.00
45491;DHT22;31237;45.586;13.782;2023-09-08T01:59:44;20.30;71.10
45491;DHT22;31237;45.586;13.782;2023-09-08T02:02:13;20.30;71.10
45491;DHT22;31237;45.586;13.782;2023-09-08T02:04:39;20.20;71.20
45491;DHT22;31237;45.586;13.782;2023-09-08T02:07:05;20.20;71.10
45491;DHT22;31237;45.586;13.782;2023-09-08T02:09:35;20.30;71.20
45491;DHT22;31237;45.586;13.782;2023-09-08T02:12:01;20.30;71.10
45491;DHT22;31237;45.586;13.782;2023-09-08T02:14:27;20.20;71.70
45491;DHT22;31237;45.586;13.782;2023-09-08T02:16:54;20.30;71.20
45491;DHT22;31237;45.586;13.782;2023-09-08T02:19:20;20.20;71.20
45491;DHT22;31237;45.586;13.782;2023-09-08T02:21:46;20.20;71.20
45491;DHT22;31237;45.586;13.782;2023-09-08T02:24:12;20.20;71.30
45491;DHT22;31237;45.586;13.782;2023-09-08T02:26:38;20.20;71.30
45491;DHT22;31237;45.586;13.782;2023-09-08T02:29:04;20.20;71.30
45491;DHT22;31237;45.586;13.782;2023-09-08T02:31:30;20.20;71.40
45491;DHT22;31237;45.586;13.782;2023-09-08T02:33:56;20.10;71.40
45491;DHT22;31237;45.586;13.782;2023-09-08T02:36:22;20.10;71.50
45491;DHT22;31237;45.586;13.782;2023-09-08T02:38:54;20.10;71.70
45491;DHT22;31237;45.586;13.782;2023-09-08T02:41:20;20.00;71.80
45491;DHT22;31237;45.586;13.782;2023-09-08T02:43:47;20.00;71.90
45491;DHT22;31237;45.586;13.782;2023-09-08T02:46:13;20.00;72.00
45491;DHT22;31237;45.586;13.782;2023-09-08T02:48:39;20.00;72.10
45491;DHT22;31237;45.586;13.782;2023-09-08T02:51:05;20.00;72.20
45491;DHT22;31237;45.586;13.782;2023-09-08T02:53:31;20.00;72.10
45491;DHT22;31237;45.586;13.782;2023-09-08T02:55:58;20.00;72.10
45491;DHT22;31237;45.586;13.782;2023-09-08T02:58:24;20.00;72.10
45491;DHT22;31237;45.586;13.782;2023-09-08T03:00:50;20.00;72.10
45491;DHT22;31237;45.586;13.782;2023-09-08T03:03:18;20.00;72.10
45491;DHT22;31237;45.586;13.782;2023-09-08T03:05:44;20.00;72.10
45491;DHT22;31237;45.586;13.782;2023-09-08T03:08:10;20.00;72.20
45491;DHT22;31237;45.586;13.782;2023-09-08T03:10:35;19.90;72.20
45491;DHT22;31237;45.586;13.782;2023-09-08T03:13:01;19.90;72.30
45491;DHT22;31237;45.586;13.782;2023-09-08T03:15:27;19.90;72.30
45491;DHT22;31237;45.586;13.782;2023-09-08T03:17:57;19.90;72.30
45491;DHT22;31237;45.586;13.782;2023-09-08T03:20:26;19.90;72.40
45491;DHT22;31237;45.586;13.782;2023-09-08T03:22:54;19.90;72.40
45491;DHT22;31237;45.586;13.782;2023-09-08T03:25:20;19.90;72.40
45491;DHT22;31237;45.586;13.782;2023-09-08T03:27:46;19.90;72.30
45491;DHT22;31237;45.586;13.782;2023-09-08T03:30:12;19.90;72.30
45491;DHT22;31237;45.586;13.782;2023-09-08T03:32:38;19.90;72.30
45491;DHT22;31237;45.586;13.782;2023-09-08T03:35:05;19.90;72.30
45491;DHT22;31237;45.586;13.782;2023-09-08T03:37:35;19.90;72.30
45491;DHT22;31237;45.586;13.782;2023-09-08T03:40:00;19.90;72.30
45491;DHT22;31237;45.586;13.782;2023-09-08T03:42:26;19.90;72.30
45491;DHT22;31237;45.586;13.782;2023-09-08T03:44:52;19.90;72.30
45491;DHT22;31237;45.586;13.782;2023-09-08T03:47:17;19.90;72.30
45491;DHT22;31237;45.586;13.782;2023-09-08T03:49:43;19.90;72.20
45491;DHT22;31237;45.586;13.782;2023-09-08T03:52:09;19.90;72.10
45491;DHT22;31237;45.586;13.782;2023-09-08T03:54:34;20.00;72.10
45491;DHT22;31237;45.586;13.782;2023-09-08T03:57:00;20.00;72.10
45491;DHT22;31237;45.586;13.782;2023-09-08T03:59:26;20.00;72.10
45491;DHT22;31237;45.586;13.782;2023-09-08T04:01:51;20.00;72.00
45491;DHT22;31237;45.586;13.782;2023-09-08T04:04:17;20.00;72.00
45491;DHT22;31237;45.586;13.782;2023-09-08T04:06:45;20.00;72.10
45491;DHT22;31237;45.586;13.782;2023-09-08T04:09:11;19.90;72.00
45491;DHT22;31237;45.586;13.782;2023-09-08T04:11:36;19.90;72.10
45491;DHT22;31237;45.586;13.782;2023-09-08T04:14:02;19.90;72.10
45491;DHT22;31237;45.586;13.782;2023-09-08T04:16:28;19.90;72.20
45491;DHT22;31237;45.586;13.782;2023-09-08T04:18:54;19.90;72.30
45491;DHT22;31237;45.586;13.782;2023-09-08T04:21:19;19.80;72.30
45491;DHT22;31237;45.586;13.782;2023-09-08T04:23:45;19.80;72.30
45491;DHT22;31237;45.586;13.782;2023-09-08T04:26:12;19.80;72.40
45491;DHT22;31237;45.586;13.782;2023-09-08T04:28:38;19.80;72.40
45491;DHT22;31237;45.586;13.782;2023-09-08T04:31:04;19.80;72.50
45491;DHT22;31237;45.586;13.782;2023-09-08T04:33:30;19.80;72.60
45491;DHT22;31237;45.586;13.782;2023-09-08T04:35:56;19.70;72.50
45491;DHT22;31237;45.586;13.782;2023-09-08T04:38:22;19.70;72.50
45491;DHT22;31237;45.586;13.782;2023-09-08T04:40:47;19.70;72.60
45491;DHT22;31237;45.586;13.782;2023-09-08T04:43:13;19.70;72.80
45491;DHT22;31237;45.586;13.782;2023-09-08T04:45:39;19.70;72.90
45491;DHT22;31237;45.586;13.782;2023-09-08T04:48:05;19.70;72.90
45491;DHT22;31237;45.586;13.782;2023-09-08T04:50:31;19.70;73.10
45491;DHT22;31237;45.586;13.782;2023-09-08T04:52:56;19.70;73.00
45491;DHT22;31237;45.586;13.782;2023-09-08T04:55:23;19.70;73.10
45491;DHT22;31237;45.586;13.782;2023-09-08T04:57:49;19.70;73.10
45491;DHT22;31237;45.586;13.782;2023-09-08T05:00:15;19.70;73.10
45491;DHT22;31237;45.586;13.782;2023-09-08T05:02:41;19.70;73.00
45491;DHT22;31237;45.586;13.782;2023-09-08T05:05:07;19.70;73.00
45491;DHT22;31237;45.586;13.782;2023-09-08T05:07:33;19.70;72.90
45491;DHT22;31237;45.586;13.782;2023-09-08T05:09:58;19.80;73.10
45491;DHT22;31237;45.586;13.782;2023-09-08T05:12:24;19.80;73.00
45491;DHT22;31237;45.586;13.782;2023-09-08T05:14:50;19.80;73.00
45491;DHT22;31237;45.586;13.782;2023-09-08T05:17:21;19.80;73.10
45491;DHT22;31237;45.586;13.782;2023-09-08T05:19:47;19.80;73.20
45491;DHT22;31237;45.586;13.782;2023-09-08T05:22:12;19.80;73.10
45491;DHT22;31237;45.586;13.782;2023-09-08T05:24:38;19.80;73.10
45491;DHT22;31237;45.586;13.782;2023-09-08T05:27:04;19.90;73.10
45491;DHT22;31237;45.586;13.782;2023-09-08T05:29:30;19.90;73.00
45491;DHT22;31237;45.586;13.782;2023-09-08T05:31:55;19.90;73.10
45491;DHT22;31237;45.586;13.782;2023-09-08T05:34:21;19.90;73.20
45491;DHT22;31237;45.586;13.782;2023-09-08T05:36:47;19.90;73.20
45491;DHT22;31237;45.586;13.782;2023-09-08T05:39:14;20.00;73.30
45491;DHT22;31237;45.586;13.782;2023-09-08T05:41:40;20.00;73.30
45491;DHT22;31237;45.586;13.782;2023-09-08T05:44:06;20.00;73.40
45491;DHT22;31237;45.586;13.782;2023-09-08T05:46:32;20.00;73.40
45491;DHT22;31237;45.586;13.782;2023-09-08T05:48:57;20.00;73.30
45491;DHT22;31237;45.586;13.782;2023-09-08T05:51:23;20.10;73.40
45491;DHT22;31237;45.586;13.782;2023-09-08T05:53:49;20.10;73.40
45491;DHT22;31237;45.586;13.782;2023-09-08T05:56:15;20.10;73.50
45491;DHT22;31237;45.586;13.782;2023-09-08T05:58:40;20.20;73.40
45491;DHT22;31237;45.586;13.782;2023-09-08T06:01:06;20.20;73.40
45491;DHT22;31237;45.586;13.782;2023-09-08T06:03:32;20.20;73.50
45491;DHT22;31237;45.586;13.782;2023-09-08T06:05:58;20.20;73.30
45491;DHT22;31237;45.586;13.782;2023-09-08T06:08:24;20.30;73.10
45491;DHT22;31237;45.586;13.782;2023-09-08T06:10:50;20.30;73.10
45491;DHT22;31237;45.586;13.782;2023-09-08T06:13:15;20.40;73.00
45491;DHT22;31237;45.586;13.782;2023-09-08T06:15:41;20.50;73.00
45491;DHT22;31237;45.586;13.782;2023-09-08T06:18:07;20.50;73.10
45491;DHT22;31237;45.586;13.782;2023-09-08T06:20:33;20.60;73.20
45491;DHT22;31237;45.586;13.782;2023-09-08T06:22:59;20.60;73.00
45491;DHT22;31237;45.586;13.782;2023-09-08T06:25:24;20.60;73.00
45491;DHT22;31237;45.586;13.782;2023-09-08T06:27:51;20.70;72.90
45491;DHT22;31237;45.586;13.782;2023-09-08T06:30:17;20.70;72.80
45491;DHT22;31237;45.586;13.782;2023-09-08T06:32:43;20.80;72.90
45491;DHT22;31237;45.586;13.782;2023-09-08T06:35:09;20.90;72.80
45491;DHT22;31237;45.586;13.782;2023-09-08T06:37:38;20.90;72.70
45491;DHT22;31237;45.586;13.782;2023-09-08T06:40:05;21.00;72.70
45491;DHT22;31237;45.586;13.782;2023-09-08T06:42:31;21.00;72.80
45491;DHT22;31237;45.586;13.782;2023-09-08T06:44:58;21.10;72.80
45491;DHT22;31237;45.586;13.782;2023-09-08T06:47:24;21.10;72.60
45491;DHT22;31237;45.586;13.782;2023-09-08T06:49:50;21.20;72.50
45491;DHT22;31237;45.586;13.782;2023-09-08T06:52:17;21.30;72.30
45491;DHT22;31237;45.586;13.782;2023-09-08T06:54:43;21.30;72.30
45491;DHT22;31237;45.586;13.782;2023-09-08T06:57:12;21.40;72.20
45491;DHT22;31237;45.586;13.782;2023-09-08T06:59:37;21.50;72.10
45491;DHT22;31237;45.586;13.782;2023-09-08T07:02:03;21.50;72.00
45491;DHT22;31237;45.586;13.782;2023-09-08T07:04:30;21.60;71.90
45491;DHT22;31237;45.586;13.782;2023-09-08T07:06:56;21.70;71.70
45491;DHT22;31237;45.586;13.782;2023-09-08T07:09:22;21.70;71.50
45491;DHT22;31237;45.586;13.782;2023-09-08T07:11:48;21.80;71.20
45491;DHT22;31237;45.586;13.782;2023-09-08T07:14:14;21.90;71.10
45491;DHT22;31237;45.586;13.782;2023-09-08T07:16:39;22.00;71.10
45491;DHT22;31237;45.586;13.782;2023-09-08T07:19:05;22.10;71.30
45491;DHT22;31237;45.586;13.782;2023-09-08T07:21:31;22.20;71.40
45491;DHT22;31237;45.586;13.782;2023-09-08T07:23:56;22.20;71.40
45491;DHT22;31237;45.586;13.782;2023-09-08T07:26:23;22.30;71.30
45491;DHT22;31237;45.586;13.782;2023-09-08T07:28:50;22.40;71.40
45491;DHT22;31237;45.586;13.782;2023-09-08T07:31:16;22.50;71.20
45491;DHT22;31237;45.586;13.782;2023-09-08T07:33:42;22.60;70.70
45491;DHT22;31237;45.586;13.782;2023-09-08T07:36:08;22.70;70.20
45491;DHT22;31237;45.586;13.782;2023-09-08T07:38:35;22.70;70.10
45491;DHT22;31237;45.586;13.782;2023-09-08T07:41:01;22.80;69.60
45491;DHT22;31237;45.586;13.782;2023-09-08T07:43:28;22.90;69.60
45491;DHT22;31237;45.586;13.782;2023-09-08T07:45:54;23.00;69.50
45491;DHT22;31237;45.586;13.782;2023-09-08T07:48:20;23.10;69.30
45491;DHT22;31237;45.586;13.782;2023-09-08T07:50:45;23.20;69.20
45491;DHT22;31237;45.586;13.782;2023-09-08T07:53:11;23.30;69.00
45491;DHT22;31237;45.586;13.782;2023-09-08T07:55:37;23.30;68.90
45491;DHT22;31237;45.586;13.782;2023-09-08T07:58:03;23.40;69.00
45491;DHT22;31237;45.586;13.782;2023-09-08T08:00:29;23.50;68.70
45491;DHT22;31237;45.586;13.782;2023-09-08T08:02:56;23.60;68.30
45491;DHT22;31237;45.586;13.782;2023-09-08T08:05:22;23.70;68.20
45491;DHT22;31237;45.586;13.782;2023-09-08T08:07:48;23.70;67.70
45491;DHT22;31237;45.586;13.782;2023-09-08T08:10:14;23.80;67.90
45491;DHT22;31237;45.586;13.782;2023-09-08T08:12:40;23.90;68.00
45491;DHT22;31237;45.586;13.782;2023-09-08T08:15:07;24.00;67.70
45491;DHT22;31237;45.586;13.782;2023-09-08T08:17:33;24.10;67.60
45491;DHT22;31237;45.586;13.782;2023-09-08T08:19:58;24.20;67.60
45491;DHT22;31237;45.586;13.782;2023-09-08T08:22:25;24.30;67.10
45491;DHT22;31237;45.586;13.782;2023-09-08T08:24:51;24.30;67.00
45491;DHT22;31237;45.586;13.782;2023-09-08T08:27:16;24.40;67.20
45491;DHT22;31237;45.586;13.782;2023-09-08T08:29:42;24.50;66.60
45491;DHT22;31237;45.586;13.782;2023-09-08T08:32:08;24.50;66.60
45491;DHT22;31237;45.586;13.782;2023-09-08T08:34:34;24.70;66.60
45491;DHT22;31237;45.586;13.782;2023-09-08T08:37:00;24.70;65.50
45491;DHT22;31237;45.586;13.782;2023-09-08T08:39:26;24.70;65.20
45491;DHT22;31237;45.586;13.782;2023-09-08T08:41:51;24.80;65.00
45491;DHT22;31237;45.586;13.782;2023-09-08T08:44:17;24.80;65.20
45491;DHT22;31237;45.586;13.782;2023-09-08T08:46:45;24.90;65.20
45491;DHT22;31237;45.586;13.782;2023-09-08T08:49:15;25.00;65.20
45491;DHT22;31237;45.586;13.782;2023-09-08T08:51:44;25.10;65.20
45491;DHT22;31237;45.586;13.782;2023-09-08T08:54:12;25.10;64.60
45491;DHT22;31237;45.586;13.782;2023-09-08T08:56:38;25.20;64.50
45491;DHT22;31237;45.586;13.782;2023-09-08T08:59:04;25.30;64.60
45491;DHT22;31237;45.586;13.782;2023-09-08T09:01:30;25.30;64.70
45491;DHT22;31237;45.586;13.782;2023-09-08T09:03:57;25.40;64.90
45491;DHT22;31237;45.586;13.782;2023-09-08T09:06:23;25.50;65.00
45491;DHT22;31237;45.586;13.782;2023-09-08T09:08:49;25.50;65.00
45491;DHT22;31237;45.586;13.782;2023-09-08T09:11:15;25.60;64.20
45491;DHT22;31237;45.586;13.782;2023-09-08T09:13:41;25.70;64.00
45491;DHT22;31237;45.586;13.782;2023-09-08T09:16:07;25.80;64.00
45491;DHT22;31237;45.586;13.782;2023-09-08T09:18:59;25.90;64.10
45491;DHT22;31237;45.586;13.782;2023-09-08T09:21:45;26.00;64.40
45491;DHT22;31237;45.586;13.782;2023-09-08T09:24:31;26.10;64.50
45491;DHT22;31237;45.586;13.782;2023-09-08T09:27:01;26.20;64.20
45491;DHT22;31237;45.586;13.782;2023-09-08T09:29:28;26.30;64.10
45491;DHT22;31237;45.586;13.782;2023-09-08T09:32:02;26.40;63.20
45491;DHT22;31237;45.586;13.782;2023-09-08T09:34:28;26.40;63.20
45491;DHT22;31237;45.586;13.782;2023-09-08T09:36:53;26.50;63.00
45491;DHT22;31237;45.586;13.782;2023-09-08T09:39:24;26.60;62.10
45491;DHT22;31237;45.586;13.782;2023-09-08T09:41:54;26.60;62.30
45491;DHT22;31237;45.586;13.782;2023-09-08T09:44:21;26.70;62.20
45491;DHT22;31237;45.586;13.782;2023-09-08T09:46:47;26.70;62.20
45491;DHT22;31237;45.586;13.782;2023-09-08T09:49:15;26.70;62.20
45491;DHT22;31237;45.586;13.782;2023-09-08T09:51:44;26.80;61.80
45491;DHT22;31237;45.586;13.782;2023-09-08T09:54:10;26.90;61.20
45491;DHT22;31237;45.586;13.782;2023-09-08T09:56:41;26.90;61.40
45491;DHT22;31237;45.586;13.782;2023-09-08T09:59:12;27.00;61.30
45491;DHT22;31237;45.586;13.782;2023-09-08T10:01:41;27.10;61.30
45491;DHT22;31237;45.586;13.782;2023-09-08T10:04:11;27.20;61.10
45491;DHT22;31237;45.586;13.782;2023-09-08T10:06:39;27.20;60.20
45491;DHT22;31237;45.586;13.782;2023-09-08T10:09:06;27.30;59.70
45491;DHT22;31237;45.586;13.782;2023-09-08T10:11:42;27.30;60.00
45491;DHT22;31237;45.586;13.782;2023-09-08T10:14:08;27.40;59.90
45491;DHT22;31237;45.586;13.782;2023-09-08T10:16:38;27.40;60.10
45491;DHT22;31237;45.586;13.782;2023-09-08T10:19:08;27.50;60.00
45491;DHT22;31237;45.586;13.782;2023-09-08T10:21:42;27.60;59.70
45491;DHT22;31237;45.586;13.782;2023-09-08T10:24:26;27.60;58.90
45491;DHT22;31237;45.586;13.782;2023-09-08T10:27:08;27.60;58.60
45491;DHT22;31237;45.586;13.782;2023-09-08T10:29:35;27.70;58.20
45491;DHT22;31237;45.586;13.782;2023-09-08T10:32:02;27.70;58.30
45491;DHT22;31237;45.586;13.782;2023-09-08T10:34:30;27.70;58.70
45491;DHT22;31237;45.586;13.782;2023-09-08T10:36:56;27.80;58.70
45491;DHT22;31237;45.586;13.782;2023-09-08T10:39:32;27.90;58.50
45491;DHT22;31237;45.586;13.782;2023-09-08T10:45:29;28.00;58.40
45491;DHT22;31237;45.586;13.782;2023-09-08T10:47:33;28.00;58.80
45491;DHT22;31237;45.586;13.782;2023-09-08T10:49:59;28.00;58.20
45491;DHT22;31237;45.586;13.782;2023-09-08T10:52:25;28.10;57.70
45491;DHT22;31237;45.586;13.782;2023-09-08T10:54:54;28.10;57.40
45491;DHT22;31237;45.586;13.782;2023-09-08T10:57:22;28.20;57.30
45491;DHT22;31237;45.586;13.782;2023-09-08T11:02:39;28.30;57.60
45491;DHT22;31237;45.586;13.782;2023-09-08T11:05:10;28.30;57.40
45491;DHT22;31237;45.586;13.782;2023-09-08T11:07:37;28.40;57.00
45491;DHT22;31237;45.586;13.782;2023-09-08T11:10:04;28.30;56.80
45491;DHT22;31237;45.586;13.782;2023-09-08T11:12:31;28.40;56.80
45491;DHT22;31237;45.586;13.782;2023-09-08T11:14:57;28.40;56.80
45491;DHT22;31237;45.586;13.782;2023-09-08T11:17:27;28.50;56.20
45491;DHT22;31237;45.586;13.782;2023-09-08T11:19:54;28.50;55.70
45491;DHT22;31237;45.586;13.782;2023-09-08T11:22:22;28.50;55.70
45491;DHT22;31237;45.586;13.782;2023-09-08T11:24:52;28.50;55.80
45491;DHT22;31237;45.586;13.782;2023-09-08T11:27:20;28.50;55.90
45491;DHT22;31237;45.586;13.782;2023-09-08T11:29:46;28.50;54.80
45491;DHT22;31237;45.586;13.782;2023-09-08T11:32:12;28.50;54.60
45491;DHT22;31237;45.586;13.782;2023-09-08T11:34:38;28.50;54.20
45491;DHT22;31237;45.586;13.782;2023-09-08T11:37:14;28.50;54.20
45491;DHT22;31237;45.586;13.782;2023-09-08T11:39:44;28.40;53.70
45491;DHT22;31237;45.586;13.782;2023-09-08T11:42:15;28.40;53.40
45491;DHT22;31237;45.586;13.782;2023-09-08T11:44:44;28.40;53.50
45491;DHT22;31237;45.586;13.782;2023-09-08T11:47:10;28.40;53.20
45491;DHT22;31237;45.586;13.782;2023-09-08T11:49:37;28.40;53.40
45491;DHT22;31237;45.586;13.782;2023-09-08T11:52:04;28.50;53.20
45491;DHT22;31237;45.586;13.782;2023-09-08T11:54:32;28.40;53.20
45491;DHT22;31237;45.586;13.782;2023-09-08T11:57:01;28.40;53.30
45491;DHT22;31237;45.586;13.782;2023-09-08T11:59:36;28.40;54.20
45491;DHT22;31237;45.586;13.782;2023-09-08T12:02:02;28.40;54.20
45491;DHT22;31237;45.586;13.782;2023-09-08T12:04:28;28.40;54.10
45491;DHT22;31237;45.586;13.782;2023-09-08T12:06:54;28.40;54.40
45491;DHT22;31237;45.586;13.782;2023-09-08T12:09:23;28.40;54.50
45491;DHT22;31237;45.586;13.782;2023-09-08T12:11:50;28.40;54.20
45491;DHT22;31237;45.586;13.782;2023-09-08T12:14:16;28.40;54.20
45491;DHT22;31237;45.586;13.782;2023-09-08T12:16:42;28.40;53.70
45491;DHT22;31237;45.586;13.782;2023-09-08T12:19:28;28.30;53.30
45491;DHT22;31237;45.586;13.782;2023-09-08T12:21:59;28.30;53.50
45491;DHT22;31237;45.586;13.782;2023-09-08T12:27:14;28.30;54.50
45491;DHT22;31237;45.586;13.782;2023-09-08T12:30:02;28.30;54.90
45491;DHT22;31237;45.586;13.782;2023-09-08T12:32:31;28.30;54.90
45491;DHT22;31237;45.586;13.782;2023-09-08T12:34:58;28.30;55.10
45491;DHT22;31237;45.586;13.782;2023-09-08T12:37:26;28.20;54.80
45491;DHT22;31237;45.586;13.782;2023-09-08T12:39:55;28.20;54.70
45491;DHT22;31237;45.586;13.782;2023-09-08T12:42:21;28.10;54.20
45491;DHT22;31237;45.586;13.782;2023-09-08T12:44:51;28.10;54.70
45491;DHT22;31237;45.586;13.782;2023-09-08T12:47:17;28.10;54.60
45491;DHT22;31237;45.586;13.782;2023-09-08T12:49:43;28.00;54.20
45491;DHT22;31237;45.586;13.782;2023-09-08T12:52:08;28.00;53.90
45491;DHT22;31237;45.586;13.782;2023-09-08T12:54:35;28.00;54.00
45491;DHT22;31237;45.586;13.782;2023-09-08T12:57:01;28.00;54.40
45491;DHT22;31237;45.586;13.782;2023-09-08T12:59:27;27.90;54.60
45491;DHT22;31237;45.586;13.782;2023-09-08T13:01:53;27.90;55.10
45491;DHT22;31237;45.586;13.782;2023-09-08T13:04:19;27.90;55.60
45491;DHT22;31237;45.586;13.782;2023-09-08T13:06:45;27.90;55.50
45491;DHT22;31237;45.586;13.782;2023-09-08T13:09:11;27.80;55.60
45491;DHT22;31237;45.586;13.782;2023-09-08T13:11:37;27.80;55.70
45491;DHT22;31237;45.586;13.782;2023-09-08T13:14:03;27.80;55.20
45491;DHT22;31237;45.586;13.782;2023-09-08T13:16:28;27.70;55.40
45491;DHT22;31237;45.586;13.782;2023-09-08T13:18:54;27.70;55.10
45491;DHT22;31237;45.586;13.782;2023-09-08T13:21:20;27.70;55.70
45491;DHT22;31237;45.586;13.782;2023-09-08T13:23:46;27.60;55.90
45491;DHT22;31237;45.586;13.782;2023-09-08T13:26:12;27.60;55.90
45491;DHT22;31237;45.586;13.782;2023-09-08T13:28:38;27.60;56.20
45491;DHT22;31237;45.586;13.782;2023-09-08T13:31:03;27.50;55.80
45491;DHT22;31237;45.586;13.782;2023-09-08T13:33:29;27.50;55.90
45491;DHT22;31237;45.586;13.782;2023-09-08T13:35:55;27.50;55.80
45491;DHT22;31237;45.586;13.782;2023-09-08T13:38:21;27.50;55.50
45491;DHT22;31237;45.586;13.782;2023-09-08T13:40:47;27.40;55.50
45491;DHT22;31237;45.586;13.782;2023-09-08T13:43:12;27.40;55.70
45491;DHT22;31237;45.586;13.782;2023-09-08T13:45:39;27.30;55.90
45491;DHT22;31237;45.586;13.782;2023-09-08T13:48:06;27.30;56.20
45491;DHT22;31237;45.586;13.782;2023-09-08T13:50:32;27.30;55.90
45491;DHT22;31237;45.586;13.782;2023-09-08T13:52:58;27.20;55.50
45491;DHT22;31237;45.586;13.782;2023-09-08T13:55:24;27.20;55.60
45491;DHT22;31237;45.586;13.782;2023-09-08T13:57:50;27.20;56.70
45491;DHT22;31237;45.586;13.782;2023-09-08T14:00:17;27.10;56.20
45491;DHT22;31237;45.586;13.782;2023-09-08T14:02:43;27.10;55.90
45491;DHT22;31237;45.586;13.782;2023-09-08T14:05:09;27.10;55.40
45491;DHT22;31237;45.586;13.782;2023-09-08T14:07:36;27.10;55.80
45491;DHT22;31237;45.586;13.782;2023-09-08T14:10:02;27.00;56.10
45491;DHT22;31237;45.586;13.782;2023-09-08T14:12:33;27.00;56.50
45491;DHT22;31237;45.586;13.782;2023-09-08T14:14:59;27.00;56.80
45491;DHT22;31237;45.586;13.782;2023-09-08T14:17:24;27.00;57.10
45491;DHT22;31237;45.586;13.782;2023-09-08T14:19:50;26.90;56.90
45491;DHT22;31237;45.586;13.782;2023-09-08T14:22:16;26.90;57.20
45491;DHT22;31237;45.586;13.782;2023-09-08T14:24:42;26.80;57.10
45491;DHT22;31237;45.586;13.782;2023-09-08T14:27:07;26.80;57.00
45491;DHT22;31237;45.586;13.782;2023-09-08T14:29:34;26.80;57.10
45491;DHT22;31237;45.586;13.782;2023-09-08T14:32:00;26.70;57.00
45491;DHT22;31237;45.586;13.782;2023-09-08T14:34:26;26.70;57.00
45491;DHT22;31237;45.586;13.782;2023-09-08T14:36:53;26.70;56.80
45491;DHT22;31237;45.586;13.782;2023-09-08T14:39:19;26.70;56.40
45491;DHT22;31237;45.586;13.782;2023-09-08T14:41:46;26.70;55.90
45491;DHT22;31237;45.586;13.782;2023-09-08T14:44:11;26.70;56.00
45491;DHT22;31237;45.586;13.782;2023-09-08T14:46:37;26.70;56.30
45491;DHT22;31237;45.586;13.782;2023-09-08T14:49:03;26.70;56.70
45491;DHT22;31237;45.586;13.782;2023-09-08T14:51:29;26.60;56.70
45491;DHT22;31237;45.586;13.782;2023-09-08T14:53:54;26.60;57.00
45491;DHT22;31237;45.586;13.782;2023-09-08T14:56:20;26.50;57.10
45491;DHT22;31237;45.586;13.782;2023-09-08T14:58:46;26.50;57.30
45491;DHT22;31237;45.586;13.782;2023-09-08T15:01:12;26.50;57.30
45491;DHT22;31237;45.586;13.782;2023-09-08T15:03:40;26.40;57.50
45491;DHT22;31237;45.586;13.782;2023-09-08T15:06:06;26.30;57.70
45491;DHT22;31237;45.586;13.782;2023-09-08T15:08:34;26.30;57.90
45491;DHT22;31237;45.586;13.782;2023-09-08T15:10:59;26.30;58.00
45491;DHT22;31237;45.586;13.782;2023-09-08T15:13:25;26.20;57.80
45491;DHT22;31237;45.586;13.782;2023-09-08T15:15:51;26.20;57.80
45491;DHT22;31237;45.586;13.782;2023-09-08T15:18:18;26.10;57.90
45491;DHT22;31237;45.586;13.782;2023-09-08T15:20:55;26.10;58.10
45491;DHT22;31237;45.586;13.782;2023-09-08T15:23:24;26.10;58.40
45491;DHT22;31237;45.586;13.782;2023-09-08T15:25:54;26.00;58.20